Overview Statistics Trail Chart Weather Telemetry Raw packets
 

This is the latest recevied weather packets stored in our database for station/object N1YZ. If no packets are shown the sender has not sent any weather packets the latest 10 day(s).

<< 4 5 6 7 8 9 10 >>
Time Temp. Humidity Pressure Rain* Wind** Luminosity Snow
1788621750 32.22° C 66% 1033.9 hPa 0 mm - 379 W/m² -
1788621445 31.67° C 68% 1034 hPa 0 mm - 231 W/m² -
1788621141 31.67° C 70% 1034 hPa 0 mm - 66 W/m² -
1788620836 31.67° C 71% 1034.1 hPa 0 mm - 52 W/m² -
1788620535 31.67° C 73% 1034 hPa 0 mm - 47 W/m² -
1788620233 31.67° C 72% 1034 hPa 0 mm - 37 W/m² -
1788619928 31.67° C 71% 1034 hPa 0 mm - 71 W/m² -
1788619626 32.22° C 72% 1034.2 hPa 0 mm - 64 W/m² -
1788619326 32.78° C 70% 1033.9 hPa 0 mm - 91 W/m² -
1788619026 33.33° C 68% 1034.2 hPa 0 mm - 77 W/m² -
1788618720 33.33° C 69% 1034.2 hPa 0 mm - 224 W/m² -
1788618419 33.33° C 70% 1034.3 hPa 0 mm - 301 W/m² -
1788618114 32.78° C 69% 1034.4 hPa 0 mm - 292 W/m² -
1788617809 31.11° C 75% 1034.3 hPa 0 mm - 277 W/m² -
1788617505 30° C 77% 1034.3 hPa 0 mm - 261 W/m² -
1788617200 28.89° C 80% 1034.5 hPa 0 mm - 258 W/m² -
1788616898 28.33° C 84% 1034.3 hPa 0 mm - 56 W/m² -
1788616589 27.78° C 85% 1034.4 hPa 0 mm - 45 W/m² -
1788616284 27.78° C 86% 1034.3 hPa 0 mm - 32 W/m² -
1788615978 27.22° C 87% 1034.4 hPa 0 mm - 30 W/m² -
1788615677 27.22° C 87% 1034.5 hPa 0 mm - 37 W/m² -
1788615372 26.67° C 89% 1034.3 hPa 0 mm - 174 W/m² -
1788615067 26.11° C 90% 1034.4 hPa 0 mm - 26 W/m² -
1788614767 26.11° C 90% 1034.3 hPa 0 mm - 25 W/m² -
1788614461 26.11° C 91% 1033.9 hPa 0 mm - 25 W/m² -

* Rain latest hour (hover to see other rain measurements)
** Current wind speed in m/s (hover to see current wind gust speed)